createdAt,value
2022-08-19T00:01:55.759Z,3.85
2022-08-19T00:04:25.949Z,2.58
2022-08-19T00:06:53.579Z,3.67
2022-08-19T00:09:22.060Z,3.47
2022-08-19T00:11:49.087Z,2.97
2022-08-19T00:14:17.538Z,2.35
2022-08-19T00:16:46.788Z,1.80
2022-08-19T00:19:13.482Z,3.30
2022-08-19T00:21:40.681Z,2.53
2022-08-19T00:24:09.764Z,4.30
2022-08-19T00:26:37.298Z,4.45
2022-08-19T00:29:04.971Z,2.13
2022-08-19T00:31:32.428Z,2.30
2022-08-19T00:33:59.357Z,3.45
2022-08-19T00:36:26.436Z,3.90
2022-08-19T00:38:53.323Z,4.88
2022-08-19T00:41:22.380Z,2.60
2022-08-19T00:44:02.010Z,3.92
2022-08-19T00:46:29.696Z,5.03
2022-08-19T00:48:58.468Z,4.90
2022-08-19T00:51:27.780Z,3.22
2022-08-19T00:53:57.808Z,3.00
2022-08-19T00:56:25.029Z,3.70
2022-08-19T00:58:51.773Z,4.63
2022-08-19T01:01:18.630Z,4.65
2022-08-19T01:03:56.777Z,3.58
2022-08-19T01:06:28.244Z,4.82
2022-08-19T01:08:56.203Z,3.15
2022-08-19T01:11:23.204Z,3.92
2022-08-19T01:13:52.949Z,3.15
2022-08-19T01:16:22.442Z,2.40
2022-08-19T01:18:50.055Z,4.55
2022-08-19T01:21:30.830Z,5.03
2022-08-19T01:23:58.042Z,3.75
2022-08-19T01:26:26.192Z,4.00
2022-08-19T01:28:58.343Z,3.38
2022-08-19T01:31:33.093Z,5.45
2022-08-19T01:34:01.572Z,3.95
2022-08-19T01:36:31.641Z,3.92
2022-08-19T01:38:59.195Z,2.20
2022-08-19T01:41:26.474Z,4.43
2022-08-19T01:44:03.828Z,5.28
2022-08-19T01:46:41.073Z,3.65
2022-08-19T01:49:09.002Z,3.80
2022-08-19T01:51:39.821Z,3.00
2022-08-19T01:54:09.058Z,3.90
2022-08-19T01:56:35.854Z,3.53
2022-08-19T01:59:09.256Z,3.83
2022-08-19T02:01:36.649Z,3.38
2022-08-19T02:04:03.769Z,5.03
2022-08-19T02:06:31.045Z,2.58
2022-08-19T02:08:58.379Z,5.15
2022-08-19T02:11:32.531Z,3.85
2022-08-19T02:14:02.600Z,3.65
2022-08-19T02:16:29.747Z,4.13
2022-08-19T02:18:56.336Z,2.97
2022-08-19T02:21:24.421Z,3.30
2022-08-19T02:23:52.046Z,2.50
2022-08-19T02:26:19.635Z,3.65
2022-08-19T02:28:46.923Z,3.13
2022-08-19T02:31:18.837Z,4.32
2022-08-19T02:33:46.281Z,3.58
2022-08-19T02:36:15.527Z,4.53
2022-08-19T02:38:47.075Z,4.13
2022-08-19T02:41:29.752Z,3.75
2022-08-19T02:44:26.362Z,4.15
2022-08-19T02:46:47.965Z,3.90
2022-08-19T02:49:17.204Z,6.25
2022-08-19T02:51:46.007Z,3.67
2022-08-19T02:54:14.817Z,5.43
2022-08-19T02:56:42.766Z,3.80
2022-08-19T02:59:11.330Z,4.05
2022-08-19T03:01:41.285Z,3.80
2022-08-19T03:04:10.060Z,4.47
2022-08-19T03:06:38.862Z,3.20
2022-08-19T03:09:05.531Z,3.47
2022-08-19T03:11:33.142Z,3.83
2022-08-19T03:14:01.029Z,3.00
2022-08-19T03:16:33.208Z,4.07
2022-08-19T03:19:02.394Z,4.88
2022-08-19T03:21:32.023Z,6.03
2022-08-19T03:24:02.041Z,7.10
2022-08-19T03:26:30.031Z,3.03
2022-08-19T03:28:57.859Z,3.97
2022-08-19T03:31:44.084Z,6.93
2022-08-19T03:34:18.173Z,6.35
2022-08-19T03:36:45.715Z,4.82
2022-08-19T03:39:12.645Z,6.38
2022-08-19T03:41:45.475Z,5.85
2022-08-19T03:44:21.728Z,6.15
2022-08-19T03:46:54.841Z,8.05
2022-08-19T03:49:27.083Z,5.78
2022-08-19T03:51:57.374Z,5.43
2022-08-19T03:54:25.717Z,4.53
2022-08-19T03:56:54.679Z,7.45
2022-08-19T03:59:26.018Z,4.88
2022-08-19T04:01:57.752Z,6.85
2022-08-19T04:04:27.250Z,4.18
2022-08-19T04:06:56.710Z,4.10
2022-08-19T04:09:23.723Z,4.93
2022-08-19T04:11:56.833Z,4.18
2022-08-19T04:14:27.724Z,5.97
2022-08-19T04:16:54.372Z,7.55
2022-08-19T04:19:21.169Z,5.10
2022-08-19T04:21:50.895Z,8.07
2022-08-19T04:24:18.303Z,5.40
2022-08-19T04:26:45.984Z,4.65
2022-08-19T04:29:16.430Z,5.82
2022-08-19T04:31:45.214Z,6.40
2022-08-19T04:34:14.117Z,9.07
2022-08-19T04:36:42.451Z,4.63
2022-08-19T04:39:15.801Z,6.20
2022-08-19T04:42:02.198Z,6.40
2022-08-19T04:44:31.555Z,6.97
2022-08-19T04:47:00.428Z,5.22
2022-08-19T04:49:28.633Z,7.63
2022-08-19T04:51:56.287Z,5.82
2022-08-19T04:54:37.778Z,5.90
2022-08-19T04:57:10.485Z,7.13
2022-08-19T04:59:39.059Z,5.97
2022-08-19T05:02:08.627Z,5.32
2022-08-19T05:04:39.490Z,7.20
2022-08-19T05:07:07.694Z,9.27
2022-08-19T05:09:58.528Z,8.45
2022-08-19T05:12:22.434Z,7.07
2022-08-19T05:14:57.553Z,5.65
2022-08-19T05:17:27.634Z,6.50
2022-08-19T05:20:14.167Z,8.93
2022-08-19T05:25:13.713Z,7.50
2022-08-19T05:27:42.064Z,8.73
2022-08-19T05:30:10.135Z,7.25
2022-08-19T05:32:37.182Z,5.70
2022-08-19T05:35:05.550Z,6.93
2022-08-19T05:37:32.459Z,5.78
2022-08-19T05:39:59.350Z,6.65
2022-08-19T05:42:26.414Z,7.25
2022-08-19T05:44:53.186Z,8.82
2022-08-19T05:47:21.052Z,7.63
2022-08-19T05:49:48.791Z,9.48
2022-08-19T05:52:18.597Z,5.97
2022-08-19T05:54:50.916Z,7.75
2022-08-19T05:57:19.031Z,7.90
2022-08-19T05:59:56.748Z,7.35
2022-08-19T06:02:29.793Z,11.77
2022-08-19T06:04:56.479Z,6.53
2022-08-19T06:07:23.714Z,8.68
2022-08-19T06:10:00.118Z,7.97
2022-08-19T06:12:35.393Z,17.98
2022-08-19T06:15:11.296Z,10.70
2022-08-19T06:17:38.461Z,15.52
2022-08-19T06:20:09.618Z,14.02
2022-08-19T06:22:44.880Z,19.55
2022-08-19T06:25:13.612Z,14.63
2022-08-19T06:27:58.523Z,17.08
2022-08-19T06:30:27.596Z,18.65
2022-08-19T06:32:54.825Z,15.13
2022-08-19T06:35:21.651Z,17.48
2022-08-19T06:37:48.251Z,17.38
2022-08-19T06:40:15.664Z,17.63
2022-08-19T06:42:53.017Z,17.33
2022-08-19T06:45:21.475Z,15.35
2022-08-19T06:47:56.974Z,16.85
2022-08-19T06:50:25.047Z,14.30
2022-08-19T06:52:52.384Z,19.63
2022-08-19T06:55:20.166Z,19.10
2022-08-19T06:57:47.400Z,13.77
2022-08-19T07:00:15.010Z,15.35
2022-08-19T07:02:48.166Z,13.07
2022-08-19T07:05:22.672Z,15.82
2022-08-19T07:07:49.291Z,16.20
2022-08-19T07:10:18.349Z,21.95
2022-08-19T07:12:45.311Z,17.80
2022-08-19T07:15:12.835Z,15.18
2022-08-19T07:17:41.790Z,14.75
2022-08-19T07:20:10.204Z,15.65
2022-08-19T07:22:40.837Z,11.10
2022-08-19T07:25:09.528Z,12.88
2022-08-19T07:27:36.524Z,13.63
2022-08-19T07:30:03.904Z,13.05
2022-08-19T07:32:31.701Z,16.55
2022-08-19T07:35:01.408Z,10.73
2022-08-19T07:37:33.129Z,9.50
2022-08-19T07:40:01.550Z,15.70
2022-08-19T07:42:30.398Z,10.55
2022-08-19T07:44:57.180Z,11.93
2022-08-19T07:47:49.524Z,12.18
2022-08-19T07:50:12.461Z,9.77
2022-08-19T07:52:40.317Z,13.25
2022-08-19T07:55:11.363Z,16.95
2022-08-19T07:57:56.338Z,12.85
2022-08-19T08:00:24.604Z,10.95
2022-08-19T08:02:52.975Z,11.13
2022-08-19T08:05:43.648Z,12.60
2022-08-19T08:08:32.146Z,15.52
2022-08-19T08:10:59.977Z,9.55
2022-08-19T08:13:27.948Z,13.48
2022-08-19T08:15:56.055Z,11.10
2022-08-19T08:18:27.698Z,13.68
2022-08-19T08:20:58.481Z,12.73
2022-08-19T08:23:29.572Z,12.30
2022-08-19T08:25:58.701Z,10.80
2022-08-19T08:28:29.340Z,17.50
2022-08-19T08:30:57.890Z,14.20
2022-08-19T08:33:32.780Z,11.52
2022-08-19T08:36:04.238Z,14.57
2022-08-19T08:38:38.954Z,10.18
2022-08-19T08:41:32.851Z,12.07
2022-08-19T08:43:59.740Z,16.45
2022-08-19T08:46:52.762Z,12.95
2022-08-19T08:49:34.429Z,10.88
2022-08-19T08:52:22.101Z,9.50
2022-08-19T08:54:55.285Z,10.75
2022-08-19T08:57:30.576Z,12.13
2022-08-19T09:00:15.657Z,8.63
2022-08-19T09:02:43.870Z,12.38
2022-08-19T09:05:23.488Z,12.52
2022-08-19T09:08:23.309Z,13.00
2022-08-19T09:10:55.378Z,15.48
2022-08-19T09:13:37.553Z,13.07
2022-08-19T09:16:15.491Z,18.40
2022-08-19T09:18:54.596Z,11.80
2022-08-19T09:21:30.536Z,9.77
2022-08-19T09:24:00.715Z,14.48
2022-08-19T09:26:48.263Z,15.05
2022-08-19T09:29:22.564Z,16.25
2022-08-19T09:31:50.786Z,13.90
2022-08-19T09:34:21.029Z,19.23
2022-08-19T09:36:56.374Z,17.25
2022-08-19T09:39:23.313Z,16.87
2022-08-19T09:41:50.908Z,15.43
2022-08-19T09:44:19.132Z,18.80
2022-08-19T09:46:48.178Z,21.58
2022-08-19T09:49:17.929Z,15.38
2022-08-19T09:51:50.392Z,19.02
2022-08-19T09:54:22.441Z,15.45
2022-08-19T09:56:51.273Z,15.93
2022-08-19T09:59:17.989Z,13.70
2022-08-19T10:01:44.741Z,14.50
2022-08-19T10:04:19.692Z,18.52
2022-08-19T10:06:53.413Z,16.55
2022-08-19T10:09:33.919Z,14.55
2022-08-19T10:12:03.841Z,13.93
2022-08-19T10:14:31.487Z,14.85
2022-08-19T10:16:59.337Z,13.88
2022-08-19T10:19:26.606Z,14.98
2022-08-19T10:21:55.655Z,13.18
2022-08-19T10:24:28.551Z,14.10
2022-08-19T10:26:55.790Z,8.70
2022-08-19T10:29:32.035Z,8.82
2022-08-19T10:32:09.697Z,11.63
2022-08-19T10:34:48.029Z,11.27
2022-08-19T10:37:18.066Z,11.80
2022-08-19T10:39:51.584Z,14.88
2022-08-19T10:42:19.471Z,11.73
2022-08-19T10:44:47.636Z,13.90
2022-08-19T10:47:24.765Z,10.13
2022-08-19T10:50:13.495Z,13.10
2022-08-19T10:52:49.249Z,10.70
2022-08-19T10:55:37.813Z,12.52
2022-08-19T10:58:04.979Z,11.88
2022-08-19T11:00:32.393Z,12.55
2022-08-19T11:02:59.554Z,12.55
2022-08-19T11:05:26.249Z,14.73
2022-08-19T11:07:53.341Z,12.77
2022-08-19T11:10:22.496Z,7.53
2022-08-19T11:12:49.738Z,17.70
2022-08-19T11:15:16.776Z,11.45
2022-08-19T11:17:44.157Z,11.32
2022-08-19T11:20:13.593Z,12.48
2022-08-19T11:22:41.924Z,11.80
2022-08-19T11:25:11.326Z,20.73
2022-08-19T11:27:40.316Z,8.98
2022-08-19T11:30:08.545Z,10.50
2022-08-19T11:32:44.493Z,21.52
2022-08-19T11:35:13.915Z,10.13
2022-08-19T11:37:41.534Z,13.40
2022-08-19T11:40:09.058Z,15.90
2022-08-19T11:42:54.045Z,20.23
2022-08-19T11:45:20.776Z,14.23
2022-08-19T11:47:48.197Z,11.65
2022-08-19T11:50:16.078Z,14.90
2022-08-19T11:52:43.618Z,12.57
2022-08-19T11:55:10.873Z,14.27
2022-08-19T11:57:38.790Z,11.90
2022-08-19T12:00:08.105Z,11.90
2022-08-19T12:02:34.913Z,11.95
2022-08-19T12:05:06.157Z,11.02
2022-08-19T12:07:35.957Z,8.23
2022-08-19T12:10:03.655Z,10.98
2022-08-19T12:12:30.401Z,12.65
2022-08-19T12:14:59.308Z,6.65
2022-08-19T12:17:29.625Z,7.30
2022-08-19T12:19:56.342Z,11.45
2022-08-19T12:22:23.289Z,11.43
2022-08-19T12:24:51.727Z,11.18
2022-08-19T12:27:32.016Z,12.77
2022-08-19T12:30:09.045Z,11.93
2022-08-19T12:32:35.799Z,12.43
2022-08-19T12:35:02.480Z,10.02
2022-08-19T12:37:29.177Z,10.25
2022-08-19T12:39:55.864Z,11.63
2022-08-19T12:42:23.534Z,10.73
2022-08-19T12:44:50.743Z,9.07
2022-08-19T12:47:17.964Z,7.50
2022-08-19T12:49:53.261Z,8.45
2022-08-19T12:52:27.983Z,10.98
2022-08-19T12:54:56.965Z,8.50
2022-08-19T12:57:32.317Z,14.63
2022-08-19T13:00:13.429Z,7.20
2022-08-19T13:02:46.518Z,7.55
2022-08-19T13:05:20.996Z,10.63
2022-08-19T13:07:48.018Z,7.20
2022-08-19T13:10:17.496Z,12.98
2022-08-19T13:12:45.557Z,12.85
2022-08-19T13:15:12.854Z,5.07
2022-08-19T13:17:42.466Z,8.23
2022-08-19T13:20:10.482Z,9.88
2022-08-19T13:22:38.616Z,6.10
2022-08-19T13:25:07.308Z,5.10
2022-08-19T13:27:34.442Z,4.43
2022-08-19T13:30:20.206Z,4.25
2022-08-19T13:33:05.714Z,7.85
2022-08-19T13:35:32.527Z,5.22
2022-08-19T13:37:59.522Z,4.80
2022-08-19T13:40:27.318Z,6.25
2022-08-19T13:42:58.694Z,5.28
2022-08-19T13:45:30.500Z,4.28
2022-08-19T13:47:59.913Z,4.90
2022-08-19T13:50:29.635Z,5.07
2022-08-19T13:52:57.205Z,4.30
2022-08-19T13:55:25.364Z,4.75
2022-08-19T13:57:53.977Z,6.70
2022-08-19T14:00:23.124Z,5.72
2022-08-19T14:02:52.451Z,4.30
2022-08-19T14:05:19.930Z,6.13
2022-08-19T14:07:46.602Z,4.32
2022-08-19T14:10:14.685Z,4.50
2022-08-19T14:12:41.409Z,3.58
2022-08-19T14:15:13.928Z,4.82
2022-08-19T14:17:44.941Z,5.40
2022-08-19T14:20:17.843Z,3.97
2022-08-19T14:22:46.898Z,5.25
2022-08-19T14:25:26.823Z,6.88
2022-08-19T14:27:53.974Z,3.67
2022-08-19T14:30:27.689Z,4.15
2022-08-19T14:32:55.708Z,7.93
2022-08-19T14:35:22.993Z,3.58
2022-08-19T14:37:51.036Z,3.30
2022-08-19T14:40:23.640Z,4.40
2022-08-19T14:42:50.337Z,4.28
2022-08-19T14:45:17.066Z,8.88
2022-08-19T14:47:45.322Z,6.13
2022-08-19T14:50:17.858Z,4.68
2022-08-19T14:52:49.862Z,4.95
2022-08-19T14:55:18.162Z,6.07
2022-08-19T14:57:45.843Z,7.00
2022-08-19T15:00:16.230Z,5.25
2022-08-19T15:02:45.022Z,8.40
2022-08-19T15:05:12.360Z,7.38
2022-08-19T15:07:40.269Z,10.23
2022-08-19T15:10:08.197Z,9.20
2022-08-19T15:12:36.421Z,8.63
2022-08-19T15:15:03.403Z,15.90
2022-08-19T15:17:32.362Z,5.80
2022-08-19T15:20:16.725Z,7.50
2022-08-19T15:22:43.482Z,9.40
2022-08-19T15:25:12.227Z,9.10
2022-08-19T15:27:40.629Z,7.07
2022-08-19T15:30:11.833Z,10.65
2022-08-19T15:32:40.003Z,4.70
2022-08-19T15:35:07.930Z,6.93
2022-08-19T15:37:37.571Z,7.35
2022-08-19T15:40:07.470Z,9.00
2022-08-19T15:42:36.371Z,7.60
2022-08-19T15:45:05.378Z,7.07
2022-08-19T15:47:35.253Z,7.63
2022-08-19T15:50:12.536Z,5.13
2022-08-19T15:52:55.184Z,6.35
2022-08-19T15:55:33.691Z,5.75
2022-08-19T15:58:28.648Z,5.97
2022-08-19T16:01:20.610Z,5.25
2022-08-19T16:04:14.573Z,11.05
2022-08-19T16:06:52.859Z,5.60
2022-08-19T16:09:27.342Z,4.85
2022-08-19T16:12:03.154Z,6.03
2022-08-19T16:14:32.637Z,7.53
2022-08-19T16:16:59.386Z,10.25
2022-08-19T16:19:26.358Z,5.40
2022-08-19T16:21:55.834Z,9.25
2022-08-19T16:24:26.354Z,6.47
2022-08-19T16:26:54.565Z,6.80
2022-08-19T16:29:33.776Z,5.20
2022-08-19T16:32:05.441Z,4.97
2022-08-19T16:34:33.570Z,8.05
2022-08-19T16:37:00.847Z,8.90
2022-08-19T16:39:28.412Z,5.18
2022-08-19T16:41:55.325Z,5.68
2022-08-19T16:44:22.083Z,7.97
2022-08-19T16:46:58.745Z,7.97
2022-08-19T16:49:53.975Z,9.65
2022-08-19T16:52:16.003Z,10.52
2022-08-19T16:54:43.787Z,7.95
2022-08-19T16:57:12.349Z,7.68
2022-08-19T16:59:42.575Z,9.68
2022-08-19T17:02:16.434Z,9.13
2022-08-19T17:04:43.291Z,6.28
2022-08-19T17:07:10.787Z,6.70
2022-08-19T17:09:38.037Z,8.20
2022-08-19T17:12:05.826Z,9.38
2022-08-19T17:14:33.191Z,7.35
2022-08-19T17:17:00.471Z,8.52
2022-08-19T17:19:28.146Z,7.45
2022-08-19T17:21:57.697Z,9.95
2022-08-19T17:24:24.380Z,11.52
2022-08-19T17:26:51.095Z,7.30
2022-08-19T17:29:17.791Z,6.15
2022-08-19T17:31:44.527Z,9.75
2022-08-19T17:34:11.270Z,10.13
2022-08-19T17:36:38.119Z,6.65
2022-08-19T17:39:05.552Z,9.30
2022-08-19T17:41:34.136Z,8.65
2022-08-19T17:44:02.410Z,8.18
2022-08-19T17:46:30.349Z,9.07
2022-08-19T17:48:58.281Z,7.97
2022-08-19T17:51:34.008Z,9.30
2022-08-19T17:54:02.331Z,11.02
2022-08-19T17:56:28.927Z,6.13
2022-08-19T17:59:00.066Z,5.72
2022-08-19T18:01:44.101Z,5.72
2022-08-19T18:04:18.677Z,7.07
2022-08-19T18:06:46.562Z,7.10
2022-08-19T18:11:52.594Z,7.60
2022-08-19T18:14:32.103Z,9.45
2022-08-19T18:17:09.946Z,10.02
2022-08-19T18:19:43.432Z,10.20
2022-08-19T18:22:36.283Z,7.38
2022-08-19T18:25:08.643Z,9.43
2022-08-19T18:27:35.643Z,7.97
2022-08-19T18:30:03.504Z,7.60
2022-08-19T18:32:34.648Z,8.93
2022-08-19T18:35:03.973Z,10.90
2022-08-19T18:37:31.638Z,7.93
2022-08-19T18:40:17.015Z,9.18
2022-08-19T18:43:23.551Z,7.53
2022-08-19T18:48:55.791Z,15.77
2022-08-19T18:51:28.179Z,12.63
2022-08-19T18:53:58.606Z,12.20
2022-08-19T18:56:31.067Z,17.95
2022-08-19T18:59:01.949Z,12.73
2022-08-19T19:01:36.554Z,14.10
2022-08-19T19:04:07.426Z,12.50
2022-08-19T19:06:40.516Z,14.93
2022-08-19T19:09:09.810Z,12.98
2022-08-19T19:11:39.470Z,12.73
2022-08-19T19:14:27.454Z,16.30
2022-08-19T19:17:01.870Z,11.48
2022-08-19T19:19:29.623Z,10.00
2022-08-19T19:21:57.751Z,9.93
2022-08-19T19:24:30.322Z,13.30
2022-08-19T19:27:00.192Z,11.05
2022-08-19T19:29:27.525Z,8.10
2022-08-19T19:31:55.913Z,9.50
2022-08-19T19:34:29.493Z,11.55
2022-08-19T19:36:57.183Z,12.60
2022-08-19T19:39:44.837Z,10.18
2022-08-19T19:42:13.733Z,7.95
2022-08-19T19:44:50.257Z,10.40
2022-08-19T19:47:18.638Z,11.45
2022-08-19T19:50:13.685Z,8.73
2022-08-19T19:52:38.704Z,10.63
2022-08-19T19:55:05.902Z,10.75
2022-08-19T19:57:32.640Z,11.88
2022-08-19T19:59:59.367Z,9.15
2022-08-19T20:02:27.607Z,10.43
2022-08-19T20:04:56.150Z,7.90
2022-08-19T20:07:42.750Z,8.95
2022-08-19T20:10:09.600Z,7.07
2022-08-19T20:12:36.283Z,10.13
2022-08-19T20:15:04.648Z,9.55
2022-08-19T20:17:32.465Z,8.18
2022-08-19T20:19:59.504Z,5.78
2022-08-19T20:22:26.184Z,8.48
2022-08-19T20:24:55.519Z,7.72
2022-08-19T20:27:23.584Z,7.15
2022-08-19T20:29:52.523Z,7.57
2022-08-19T20:32:19.168Z,8.32
2022-08-19T20:34:48.970Z,7.60
2022-08-19T20:37:16.172Z,8.80
2022-08-19T20:39:43.022Z,8.77
2022-08-19T20:42:09.800Z,8.90
2022-08-19T20:44:36.974Z,10.27
2022-08-19T20:47:04.248Z,8.32
2022-08-19T20:49:31.721Z,6.80
2022-08-19T20:51:58.579Z,8.52
2022-08-19T20:54:26.396Z,7.97
2022-08-19T20:56:53.831Z,9.13
2022-08-19T20:59:22.073Z,9.43
2022-08-19T21:01:51.647Z,10.27
2022-08-19T21:04:19.885Z,12.30
2022-08-19T21:06:46.951Z,7.15
2022-08-19T21:09:14.136Z,9.18
2022-08-19T21:11:41.128Z,10.05
2022-08-19T21:14:08.013Z,7.60
2022-08-19T21:16:34.736Z,7.93
2022-08-19T21:19:01.588Z,8.18
2022-08-19T21:21:28.534Z,5.97
2022-08-19T21:23:55.189Z,7.80
2022-08-19T21:26:21.997Z,9.43
2022-08-19T21:28:48.606Z,8.35
2022-08-19T21:31:17.653Z,6.18
2022-08-19T21:33:45.001Z,6.45
2022-08-19T21:36:11.974Z,7.88
2022-08-19T21:38:38.579Z,5.32
2022-08-19T21:41:06.588Z,8.82
2022-08-19T21:43:34.954Z,9.05
2022-08-19T21:46:02.100Z,8.77
2022-08-19T21:48:28.721Z,6.57
2022-08-19T21:50:55.513Z,8.55
2022-08-19T21:53:22.980Z,8.05
2022-08-19T21:55:53.594Z,12.10
2022-08-19T21:58:29.249Z,12.77
2022-08-19T22:00:59.612Z,10.88
2022-08-19T22:03:27.193Z,5.93
2022-08-19T22:05:53.816Z,9.05
2022-08-19T22:08:20.448Z,9.57
2022-08-19T22:10:49.484Z,7.47
2022-08-19T22:13:18.012Z,7.75
2022-08-19T22:15:46.184Z,7.78
2022-08-19T22:18:13.651Z,11.65
2022-08-19T22:20:40.492Z,9.25
2022-08-19T22:23:07.849Z,10.75
2022-08-19T22:25:40.634Z,7.32
2022-08-19T22:28:11.097Z,8.55
2022-08-19T22:30:42.314Z,9.35
2022-08-19T22:33:16.905Z,9.07
2022-08-19T22:35:45.582Z,9.35
2022-08-19T22:38:13.256Z,10.02
2022-08-19T22:40:43.570Z,9.55
2022-08-19T22:43:15.042Z,8.00
2022-08-19T22:45:43.266Z,11.13
2022-08-19T22:48:12.211Z,6.78
2022-08-19T22:50:40.201Z,6.65
2022-08-19T22:53:09.367Z,7.18
2022-08-19T22:55:37.955Z,9.05
2022-08-19T22:58:05.480Z,7.80
2022-08-19T23:00:33.007Z,7.18
2022-08-19T23:03:01.510Z,8.57
2022-08-19T23:05:29.469Z,7.43
2022-08-19T23:07:58.069Z,8.23
2022-08-19T23:10:26.708Z,7.05
2022-08-19T23:12:56.799Z,8.95
2022-08-19T23:15:28.121Z,9.38
2022-08-19T23:17:57.910Z,10.25
2022-08-19T23:20:29.872Z,8.20
2022-08-19T23:22:57.221Z,7.88
2022-08-19T23:25:27.592Z,9.38
2022-08-19T23:28:13.259Z,10.55
2022-08-19T23:30:44.457Z,9.48
2022-08-19T23:33:24.928Z,14.43
2022-08-19T23:36:02.170Z,12.55
2022-08-19T23:38:30.284Z,13.43
2022-08-19T23:41:00.747Z,9.75
2022-08-19T23:43:29.627Z,11.50
2022-08-19T23:46:01.866Z,13.38
2022-08-19T23:48:37.418Z,10.10
2022-08-19T23:51:06.921Z,11.23
2022-08-19T23:53:34.227Z,9.15
2022-08-19T23:56:00.869Z,13.30
2022-08-19T23:58:30.241Z,13.07
